Terminal Aerodrome Forecast
Issued by NWS

Home | Current Version | Previous Version | Text Only | Print | Product List | Glossary On
Versions: 1 2 3 4 5 6 7 8 9 10 11 12 13 14 15
000
FTAK31 PAJN 270500
TAFASI
TAF
PASI 270526Z 2706/2806 30009KT P6SM VCSH SCT015 BKN025 OVC040
     FM270900 30010KT P6SM VCSH BKN015 OVC040
     FM271800 29008KT P6SM BKN020 BKN080
     FM272200 29014KT P6SM BKN030 BKN100
     FM280400 32012KT P6SM OVC030=

USA.gov is the U.S. government's official web portal to all federal, state and local government web resources and services.